sensor_id;sensor_type;location;lat;lon;timestamp;pressure;altitude;pressure_sealevel;temperature;humidity
45040;BME280;30778;53.574;7.770;2023-02-28T00:00:48;103180.19;;;2.98;52.83
45040;BME280;30778;53.574;7.770;2023-02-28T00:03:16;103171.13;;;2.83;53.27
45040;BME280;30778;53.574;7.770;2023-02-28T00:05:41;103171.84;;;2.79;52.99
45040;BME280;30778;53.574;7.770;2023-02-28T00:08:08;103174.25;;;2.72;53.13
45040;BME280;30778;53.574;7.770;2023-02-28T00:10:34;103169.22;;;2.48;53.84
45040;BME280;30778;53.574;7.770;2023-02-28T00:13:05;103147.84;;;2.52;53.74
45040;BME280;30778;53.574;7.770;2023-02-28T00:15:31;103150.28;;;2.48;53.70
45040;BME280;30778;53.574;7.770;2023-02-28T00:17:57;103158.75;;;2.72;53.29
45040;BME280;30778;53.574;7.770;2023-02-28T00:20:23;103154.31;;;2.67;53.07
45040;BME280;30778;53.574;7.770;2023-02-28T00:22:50;103155.97;;;2.66;53.33
45040;BME280;30778;53.574;7.770;2023-02-28T00:25:22;103155.97;;;2.66;53.00
45040;BME280;30778;53.574;7.770;2023-02-28T00:27:48;103152.84;;;2.76;53.31
45040;BME280;30778;53.574;7.770;2023-02-28T00:32:41;103158.19;;;2.83;52.97
45040;BME280;30778;53.574;7.770;2023-02-28T00:35:07;103147.50;;;2.70;53.03
45040;BME280;30778;53.574;7.770;2023-02-28T00:37:33;103154.97;;;2.61;53.68
45040;BME280;30778;53.574;7.770;2023-02-28T00:39:59;103150.94;;;2.69;53.22
45040;BME280;30778;53.574;7.770;2023-02-28T00:42:26;103154.63;;;2.79;52.83
45040;BME280;30778;53.574;7.770;2023-02-28T00:44:52;103150.59;;;2.87;52.41
45040;BME280;30778;53.574;7.770;2023-02-28T00:47:18;103150.72;;;2.92;52.45
45040;BME280;30778;53.574;7.770;2023-02-28T00:49:43;103139.50;;;2.91;52.18
45040;BME280;30778;53.574;7.770;2023-02-28T00:52:11;103153.97;;;2.85;52.66
45040;BME280;30778;53.574;7.770;2023-02-28T00:54:37;103156.34;;;2.79;52.80
45040;BME280;30778;53.574;7.770;2023-02-28T00:57:02;103162.34;;;2.77;52.51
45040;BME280;30778;53.574;7.770;2023-02-28T00:59:28;103172.38;;;2.97;52.49
45040;BME280;30778;53.574;7.770;2023-02-28T01:01:53;103165.38;;;2.93;52.16
45040;BME280;30778;53.574;7.770;2023-02-28T01:04:20;103169.66;;;2.35;53.37
45040;BME280;30778;53.574;7.770;2023-02-28T01:06:46;103162.66;;;2.31;53.44
45040;BME280;30778;53.574;7.770;2023-02-28T01:09:11;103164.47;;;2.33;53.53
45040;BME280;30778;53.574;7.770;2023-02-28T01:11:37;103164.47;;;2.62;52.89
45040;BME280;30778;53.574;7.770;2023-02-28T01:14:03;103168.72;;;2.60;52.63
45040;BME280;30778;53.574;7.770;2023-02-28T01:16:30;103168.63;;;2.57;52.45
45040;BME280;30778;53.574;7.770;2023-02-28T01:18:56;103164.03;;;2.47;52.78
45040;BME280;30778;53.574;7.770;2023-02-28T01:21:23;103169.41;;;2.54;53.09
45040;BME280;30778;53.574;7.770;2023-02-28T01:23:49;103166.16;;;2.60;52.61
45040;BME280;30778;53.574;7.770;2023-02-28T01:26:17;103162.59;;;2.56;52.37
45040;BME280;30778;53.574;7.770;2023-02-28T01:28:43;103166.78;;;2.53;52.56
45040;BME280;30778;53.574;7.770;2023-02-28T01:31:09;103167.69;;;2.55;52.75
45040;BME280;30778;53.574;7.770;2023-02-28T01:33:36;103173.75;;;2.55;53.11
45040;BME280;30778;53.574;7.770;2023-02-28T01:36:12;103171.63;;;2.15;53.92
45040;BME280;30778;53.574;7.770;2023-02-28T01:38:39;103167.66;;;2.25;53.81
45040;BME280;30778;53.574;7.770;2023-02-28T01:41:05;103167.72;;;2.28;53.82
45040;BME280;30778;53.574;7.770;2023-02-28T01:46:11;103160.84;;;2.27;54.19
45040;BME280;30778;53.574;7.770;2023-02-28T01:48:42;103161.25;;;2.41;54.09
45040;BME280;30778;53.574;7.770;2023-02-28T01:51:15;103161.22;;;2.12;54.47
45040;BME280;30778;53.574;7.770;2023-02-28T01:53:47;103164.22;;;2.26;54.67
45040;BME280;30778;53.574;7.770;2023-02-28T01:56:17;103154.47;;;2.17;54.62
45040;BME280;30778;53.574;7.770;2023-02-28T01:58:52;103149.19;;;2.12;54.81
45040;BME280;30778;53.574;7.770;2023-02-28T02:01:20;103153.38;;;2.38;54.35
45040;BME280;30778;53.574;7.770;2023-02-28T02:03:55;103152.25;;;2.28;54.27
45040;BME280;30778;53.574;7.770;2023-02-28T02:06:36;103144.63;;;2.32;54.16
45040;BME280;30778;53.574;7.770;2023-02-28T02:09:02;103143.56;;;2.24;54.78
45040;BME280;30778;53.574;7.770;2023-02-28T02:11:28;103150.66;;;2.33;54.29
45040;BME280;30778;53.574;7.770;2023-02-28T02:14:00;103142.66;;;2.24;54.57
45040;BME280;30778;53.574;7.770;2023-02-28T02:25:26;103142.16;;;1.81;55.77
45040;BME280;30778;53.574;7.770;2023-02-28T02:36:03;103135.41;;;2.12;55.63
45040;BME280;30778;53.574;7.770;2023-02-28T02:46:38;103135.69;;;2.21;54.63
45040;BME280;30778;53.574;7.770;2023-02-28T02:49:09;103140.06;;;2.24;54.62
45040;BME280;30778;53.574;7.770;2023-02-28T02:51:38;103142.50;;;2.19;54.90
45040;BME280;30778;53.574;7.770;2023-02-28T02:54:10;103147.31;;;1.81;55.59
45040;BME280;30778;53.574;7.770;2023-02-28T02:56:42;103150.16;;;2.16;55.03
45040;BME280;30778;53.574;7.770;2023-02-28T02:59:11;103147.09;;;2.28;55.07
45040;BME280;30778;53.574;7.770;2023-02-28T03:01:40;103148.31;;;2.12;54.90
45040;BME280;30778;53.574;7.770;2023-02-28T03:04:28;103147.16;;;2.31;55.11
45040;BME280;30778;53.574;7.770;2023-02-28T03:06:54;103141.41;;;2.40;54.75
45040;BME280;30778;53.574;7.770;2023-02-28T03:09:24;103142.31;;;2.40;54.54
45040;BME280;30778;53.574;7.770;2023-02-28T03:11:52;103147.28;;;2.34;54.75
45040;BME280;30778;53.574;7.770;2023-02-28T03:17:24;103143.06;;;2.38;54.93
45040;BME280;30778;53.574;7.770;2023-02-28T03:20:05;103145.72;;;2.39;54.82
45040;BME280;30778;53.574;7.770;2023-02-28T03:25:28;103147.22;;;2.32;54.92
45040;BME280;30778;53.574;7.770;2023-02-28T03:28:18;103149.72;;;2.29;54.52
45040;BME280;30778;53.574;7.770;2023-02-28T03:30:54;103143.56;;;2.26;54.84
45040;BME280;30778;53.574;7.770;2023-02-28T03:33:32;103142.91;;;2.31;54.82
45040;BME280;30778;53.574;7.770;2023-02-28T03:36:12;103143.72;;;2.30;54.42
45040;BME280;30778;53.574;7.770;2023-02-28T03:41:27;103138.06;;;2.15;54.75
45040;BME280;30778;53.574;7.770;2023-02-28T03:44:02;103140.84;;;2.21;54.81
45040;BME280;30778;53.574;7.770;2023-02-28T03:46:32;103137.25;;;2.16;55.17
45040;BME280;30778;53.574;7.770;2023-02-28T03:49:06;103144.06;;;2.14;55.51
45040;BME280;30778;53.574;7.770;2023-02-28T03:51:33;103141.00;;;2.26;55.12
45040;BME280;30778;53.574;7.770;2023-02-28T03:54:06;103142.25;;;2.39;54.77
45040;BME280;30778;53.574;7.770;2023-02-28T03:56:48;103138.03;;;2.41;54.59
45040;BME280;30778;53.574;7.770;2023-02-28T03:59:39;103145.03;;;2.45;54.66
45040;BME280;30778;53.574;7.770;2023-02-28T04:02:07;103148.41;;;2.42;54.41
45040;BME280;30778;53.574;7.770;2023-02-28T04:04:33;103156.44;;;2.24;54.48
45040;BME280;30778;53.574;7.770;2023-02-28T04:07:07;103151.72;;;2.11;54.79
45040;BME280;30778;53.574;7.770;2023-02-28T04:09:34;103147.97;;;2.01;55.10
45040;BME280;30778;53.574;7.770;2023-02-28T04:11:59;103146.44;;;2.08;55.02
45040;BME280;30778;53.574;7.770;2023-02-28T04:14:25;103145.31;;;2.00;55.26
45040;BME280;30778;53.574;7.770;2023-02-28T04:16:51;103147.16;;;2.02;54.83
45040;BME280;30778;53.574;7.770;2023-02-28T04:19:18;103149.59;;;1.99;54.86
45040;BME280;30778;53.574;7.770;2023-02-28T04:21:46;103151.81;;;1.87;55.22
45040;BME280;30778;53.574;7.770;2023-02-28T04:24:13;103145.16;;;1.93;55.45
45040;BME280;30778;53.574;7.770;2023-02-28T04:26:41;103150.69;;;2.06;55.48
45040;BME280;30778;53.574;7.770;2023-02-28T04:29:09;103142.31;;;2.13;55.15
45040;BME280;30778;53.574;7.770;2023-02-28T04:31:35;103136.41;;;2.17;55.21
45040;BME280;30778;53.574;7.770;2023-02-28T04:34:00;103145.94;;;2.18;55.13
45040;BME280;30778;53.574;7.770;2023-02-28T04:36:26;103147.09;;;2.28;55.07
45040;BME280;30778;53.574;7.770;2023-02-28T04:38:52;103146.88;;;2.22;54.95
45040;BME280;30778;53.574;7.770;2023-02-28T04:41:21;103148.41;;;2.15;54.86
45040;BME280;30778;53.574;7.770;2023-02-28T04:43:46;103149.66;;;2.01;55.06
45040;BME280;30778;53.574;7.770;2023-02-28T04:46:12;103154.84;;;2.01;54.98
45040;BME280;30778;53.574;7.770;2023-02-28T04:48:38;103157.31;;;1.98;55.32
45040;BME280;30778;53.574;7.770;2023-02-28T04:51:07;103162.56;;;2.01;55.64
45040;BME280;30778;53.574;7.770;2023-02-28T04:53:34;103165.97;;;2.00;55.25
45040;BME280;30778;53.574;7.770;2023-02-28T04:55:59;103164.00;;;1.92;55.37
45040;BME280;30778;53.574;7.770;2023-02-28T04:58:26;103164.13;;;1.96;55.71
45040;BME280;30778;53.574;7.770;2023-02-28T05:00:52;103160.50;;;1.90;55.48
45040;BME280;30778;53.574;7.770;2023-02-28T05:03:19;103159.53;;;1.87;55.51
45040;BME280;30778;53.574;7.770;2023-02-28T05:05:46;103161.97;;;1.82;55.45
45040;BME280;30778;53.574;7.770;2023-02-28T05:08:12;103160.31;;;1.84;55.69
45040;BME280;30778;53.574;7.770;2023-02-28T05:10:38;103168.78;;;1.80;55.55
45040;BME280;30778;53.574;7.770;2023-02-28T05:13:03;103169.44;;;1.75;55.71
45040;BME280;30778;53.574;7.770;2023-02-28T05:15:29;103170.44;;;1.78;55.84
45040;BME280;30778;53.574;7.770;2023-02-28T05:17:54;103169.66;;;1.81;56.03
45040;BME280;30778;53.574;7.770;2023-02-28T05:20:20;103164.63;;;1.85;55.80
45040;BME280;30778;53.574;7.770;2023-02-28T05:22:46;103171.66;;;1.89;55.65
45040;BME280;30778;53.574;7.770;2023-02-28T05:25:18;103180.22;;;1.88;55.44
45040;BME280;30778;53.574;7.770;2023-02-28T05:27:43;103179.19;;;1.83;55.69
45040;BME280;30778;53.574;7.770;2023-02-28T05:30:11;103171.44;;;1.83;55.97
45040;BME280;30778;53.574;7.770;2023-02-28T05:32:38;103174.44;;;1.96;55.79
45040;BME280;30778;53.574;7.770;2023-02-28T05:35:03;103172.03;;;2.02;55.46
45040;BME280;30778;53.574;7.770;2023-02-28T05:37:29;103172.88;;;2.01;55.30
45040;BME280;30778;53.574;7.770;2023-02-28T05:39:54;103163.44;;;2.01;55.41
45040;BME280;30778;53.574;7.770;2023-02-28T05:42:20;103169.09;;;1.89;55.43
45040;BME280;30778;53.574;7.770;2023-02-28T05:44:46;103169.09;;;1.89;55.55
45040;BME280;30778;53.574;7.770;2023-02-28T05:47:11;103167.28;;;1.87;55.70
45040;BME280;30778;53.574;7.770;2023-02-28T05:49:41;103169.16;;;1.92;55.20
45040;BME280;30778;53.574;7.770;2023-02-28T05:52:06;103167.81;;;2.04;55.29
45040;BME280;30778;53.574;7.770;2023-02-28T05:54:32;103171.22;;;2.03;55.10
45040;BME280;30778;53.574;7.770;2023-02-28T05:56:57;103169.59;;;2.05;55.53
45040;BME280;30778;53.574;7.770;2023-02-28T05:59:23;103172.97;;;2.04;55.61
45040;BME280;30778;53.574;7.770;2023-02-28T06:01:48;103178.69;;;1.93;55.40
45040;BME280;30778;53.574;7.770;2023-02-28T06:04:16;103169.47;;;2.02;55.55
45040;BME280;30778;53.574;7.770;2023-02-28T06:06:46;103171.72;;;1.91;55.48
45040;BME280;30778;53.574;7.770;2023-02-28T06:09:11;103182.56;;;2.08;55.23
45040;BME280;30778;53.574;7.770;2023-02-28T06:11:37;103174.16;;;2.13;55.53
45040;BME280;30778;53.574;7.770;2023-02-28T06:14:03;103181.75;;;2.09;55.01
45040;BME280;30778;53.574;7.770;2023-02-28T06:16:31;103179.56;;;2.21;55.27
45040;BME280;30778;53.574;7.770;2023-02-28T06:18:58;103179.56;;;2.21;55.05
45040;BME280;30778;53.574;7.770;2023-02-28T06:21:25;103183.78;;;2.19;54.75
45040;BME280;30778;53.574;7.770;2023-02-28T06:23:53;103190.03;;;2.26;55.09
45040;BME280;30778;53.574;7.770;2023-02-28T06:26:19;103190.53;;;2.14;55.12
45040;BME280;30778;53.574;7.770;2023-02-28T06:28:45;103183.34;;;2.05;54.89
45040;BME280;30778;53.574;7.770;2023-02-28T06:31:14;103192.66;;;2.00;55.05
45040;BME280;30778;53.574;7.770;2023-02-28T06:33:41;103192.66;;;2.00;55.34
45040;BME280;30778;53.574;7.770;2023-02-28T06:36:09;103196.47;;;2.11;55.32
45040;BME280;30778;53.574;7.770;2023-02-28T06:38:36;103201.75;;;2.16;54.95
45040;BME280;30778;53.574;7.770;2023-02-28T06:41:02;103200.41;;;2.27;55.54
45040;BME280;30778;53.574;7.770;2023-02-28T06:43:31;103214.59;;;2.40;55.25
45040;BME280;30778;53.574;7.770;2023-02-28T06:45:58;103208.72;;;2.46;54.96
45040;BME280;30778;53.574;7.770;2023-02-28T06:48:26;103212.63;;;2.60;55.42
45040;BME280;30778;53.574;7.770;2023-02-28T06:50:52;103211.13;;;2.68;54.73
45040;BME280;30778;53.574;7.770;2023-02-28T06:53:17;103211.13;;;2.68;54.15
45040;BME280;30778;53.574;7.770;2023-02-28T06:55:43;103210.00;;;2.31;54.65
45040;BME280;30778;53.574;7.770;2023-02-28T06:58:09;103213.78;;;2.70;54.44
45040;BME280;30778;53.574;7.770;2023-02-28T07:00:42;103219.94;;;3.04;54.43
45040;BME280;30778;53.574;7.770;2023-02-28T07:03:10;103221.84;;;3.11;53.74
45040;BME280;30778;53.574;7.770;2023-02-28T07:05:36;103221.06;;;3.13;53.40
45040;BME280;30778;53.574;7.770;2023-02-28T07:08:03;103226.44;;;2.91;52.69
45040;BME280;30778;53.574;7.770;2023-02-28T07:10:30;103232.25;;;2.84;53.41
45040;BME280;30778;53.574;7.770;2023-02-28T07:12:56;103230.78;;;2.92;53.32
45040;BME280;30778;53.574;7.770;2023-02-28T07:15:22;103239.53;;;2.97;53.28
45040;BME280;30778;53.574;7.770;2023-02-28T07:17:47;103237.56;;;3.17;53.42
45040;BME280;30778;53.574;7.770;2023-02-28T07:20:13;103237.28;;;3.36;52.52
45040;BME280;30778;53.574;7.770;2023-02-28T07:22:39;103242.91;;;3.53;52.14
45040;BME280;30778;53.574;7.770;2023-02-28T07:25:05;103241.50;;;3.98;51.56
45040;BME280;30778;53.574;7.770;2023-02-28T07:27:32;103240.53;;;5.46;49.04
45040;BME280;30778;53.574;7.770;2023-02-28T07:29:57;103231.50;;;7.52;46.90
45040;BME280;30778;53.574;7.770;2023-02-28T07:32:27;103224.06;;;9.43;41.49
45040;BME280;30778;53.574;7.770;2023-02-28T07:34:53;103220.59;;;10.67;36.95
45040;BME280;30778;53.574;7.770;2023-02-28T07:37:19;103228.56;;;12.07;35.69
45040;BME280;30778;53.574;7.770;2023-02-28T07:39:45;103226.00;;;12.86;32.49
45040;BME280;30778;53.574;7.770;2023-02-28T07:42:12;103228.88;;;13.34;30.46
45040;BME280;30778;53.574;7.770;2023-02-28T07:44:39;103230.28;;;13.60;29.26
45040;BME280;30778;53.574;7.770;2023-02-28T07:47:09;103218.75;;;14.20;28.51
45040;BME280;30778;53.574;7.770;2023-02-28T07:49:37;103217.00;;;14.68;28.78
45040;BME280;30778;53.574;7.770;2023-02-28T07:52:06;103210.88;;;14.66;28.13
45040;BME280;30778;53.574;7.770;2023-02-28T07:54:33;103219.41;;;14.79;26.78
45040;BME280;30778;53.574;7.770;2023-02-28T07:56:58;103222.59;;;14.50;27.67
45040;BME280;30778;53.574;7.770;2023-02-28T07:59:24;103221.31;;;14.72;27.76
45040;BME280;30778;53.574;7.770;2023-02-28T08:01:50;103223.16;;;15.08;28.11
45040;BME280;30778;53.574;7.770;2023-02-28T08:04:17;103223.75;;;15.21;27.56
45040;BME280;30778;53.574;7.770;2023-02-28T08:06:42;103226.22;;;14.88;27.08
45040;BME280;30778;53.574;7.770;2023-02-28T08:09:10;103220.28;;;15.22;27.69
45040;BME280;30778;53.574;7.770;2023-02-28T08:11:36;103230.31;;;15.43;25.34
45040;BME280;30778;53.574;7.770;2023-02-28T08:14:02;103221.25;;;14.74;26.36
45040;BME280;30778;53.574;7.770;2023-02-28T08:16:27;103228.59;;;16.14;25.76
45040;BME280;30778;53.574;7.770;2023-02-28T08:18:53;103223.78;;;16.92;25.00
45040;BME280;30778;53.574;7.770;2023-02-28T08:21:20;103217.09;;;17.38;23.70
45040;BME280;30778;53.574;7.770;2023-02-28T08:23:49;103224.44;;;16.69;23.99
45040;BME280;30778;53.574;7.770;2023-02-28T08:26:16;103230.63;;;16.68;23.40
45040;BME280;30778;53.574;7.770;2023-02-28T08:28:42;103234.94;;;17.02;23.15
45040;BME280;30778;53.574;7.770;2023-02-28T08:31:12;103232.06;;;17.38;23.59
45040;BME280;30778;53.574;7.770;2023-02-28T08:33:39;103230.44;;;16.76;22.21
45040;BME280;30778;53.574;7.770;2023-02-28T08:36:06;103230.31;;;16.48;23.75
45040;BME280;30778;53.574;7.770;2023-02-28T08:38:32;103230.84;;;15.18;25.01
45040;BME280;30778;53.574;7.770;2023-02-28T08:40:59;103231.81;;;14.26;26.46
45040;BME280;30778;53.574;7.770;2023-02-28T08:43:25;103229.44;;;15.02;26.14
45040;BME280;30778;53.574;7.770;2023-02-28T08:45:52;103229.81;;;15.65;26.55
45040;BME280;30778;53.574;7.770;2023-02-28T08:48:18;103236.94;;;14.32;27.74
45040;BME280;30778;53.574;7.770;2023-02-28T08:50:44;103232.41;;;13.90;27.10
45040;BME280;30778;53.574;7.770;2023-02-28T08:53:09;103236.44;;;13.56;26.25
45040;BME280;30778;53.574;7.770;2023-02-28T08:55:35;103235.72;;;13.43;28.90
45040;BME280;30778;53.574;7.770;2023-02-28T08:58:00;103240.44;;;13.21;28.80
45040;BME280;30778;53.574;7.770;2023-02-28T09:00:26;103237.47;;;13.45;30.15
45040;BME280;30778;53.574;7.770;2023-02-28T09:02:52;103228.16;;;13.83;28.52
45040;BME280;30778;53.574;7.770;2023-02-28T09:05:20;103224.22;;;14.07;28.08
45040;BME280;30778;53.574;7.770;2023-02-28T09:07:45;103230.31;;;13.55;29.48
45040;BME280;30778;53.574;7.770;2023-02-28T09:10:11;103235.66;;;11.96;30.67
45040;BME280;30778;53.574;7.770;2023-02-28T09:12:36;103231.13;;;10.33;32.71
45040;BME280;30778;53.574;7.770;2023-02-28T09:15:03;103243.00;;;8.83;34.68
45040;BME280;30778;53.574;7.770;2023-02-28T09:17:31;103243.19;;;9.28;35.64
45040;BME280;30778;53.574;7.770;2023-02-28T09:19:57;103236.34;;;10.30;33.49
45040;BME280;30778;53.574;7.770;2023-02-28T09:22:22;103241.56;;;10.39;32.44
45040;BME280;30778;53.574;7.770;2023-02-28T09:24:48;103241.53;;;9.65;34.04
45040;BME280;30778;53.574;7.770;2023-02-28T09:27:13;103244.00;;;9.10;35.58
45040;BME280;30778;53.574;7.770;2023-02-28T09:29:38;103244.75;;;8.84;35.67
45040;BME280;30778;53.574;7.770;2023-02-28T09:32:04;103246.88;;;8.17;37.26
45040;BME280;30778;53.574;7.770;2023-02-28T09:34:33;103249.19;;;7.84;37.76
45040;BME280;30778;53.574;7.770;2023-02-28T09:36:59;103249.56;;;7.39;38.10
45040;BME280;30778;53.574;7.770;2023-02-28T09:39:25;103255.59;;;7.38;38.24
45040;BME280;30778;53.574;7.770;2023-02-28T09:41:52;103252.44;;;7.60;36.64
45040;BME280;30778;53.574;7.770;2023-02-28T09:46:51;103264.84;;;7.12;37.71
45040;BME280;30778;53.574;7.770;2023-02-28T09:49:23;103264.50;;;6.85;38.07
45040;BME280;30778;53.574;7.770;2023-02-28T09:51:52;103259.25;;;7.52;37.10
45040;BME280;30778;53.574;7.770;2023-02-28T09:54:24;103270.72;;;7.65;36.68
45040;BME280;30778;53.574;7.770;2023-02-28T09:56:57;103269.84;;;7.69;36.73
45040;BME280;30778;53.574;7.770;2023-02-28T09:59:55;103271.88;;;7.96;37.39
45040;BME280;30778;53.574;7.770;2023-02-28T10:02:46;103262.13;;;8.82;35.66
45040;BME280;30778;53.574;7.770;2023-02-28T10:05:21;103260.78;;;10.10;34.38
45040;BME280;30778;53.574;7.770;2023-02-28T10:11:02;103255.53;;;10.32;32.18
45040;BME280;30778;53.574;7.770;2023-02-28T10:13:20;103257.22;;;10.63;33.11
45040;BME280;30778;53.574;7.770;2023-02-28T10:15:52;103270.28;;;10.82;33.92
45040;BME280;30778;53.574;7.770;2023-02-28T10:18:24;103264.00;;;11.26;30.63
45040;BME280;30778;53.574;7.770;2023-02-28T10:20:50;103263.97;;;11.32;30.62
45040;BME280;30778;53.574;7.770;2023-02-28T10:23:35;103260.75;;;10.16;29.81
45040;BME280;30778;53.574;7.770;2023-02-28T10:26:12;103264.81;;;8.97;32.27
45040;BME280;30778;53.574;7.770;2023-02-28T10:28:38;103264.25;;;8.19;32.82
45040;BME280;30778;53.574;7.770;2023-02-28T10:31:04;103266.97;;;7.46;34.34
45040;BME280;30778;53.574;7.770;2023-02-28T10:33:32;103271.16;;;7.31;34.81
45040;BME280;30778;53.574;7.770;2023-02-28T10:36:00;103270.66;;;6.91;35.13
45040;BME280;30778;53.574;7.770;2023-02-28T10:38:34;103274.66;;;6.69;35.82
45040;BME280;30778;53.574;7.770;2023-02-28T10:41:06;103273.47;;;6.47;36.58
45040;BME280;30778;53.574;7.770;2023-02-28T10:43:31;103278.75;;;6.54;36.36
45040;BME280;30778;53.574;7.770;2023-02-28T10:45:58;103276.75;;;6.37;36.59
45040;BME280;30778;53.574;7.770;2023-02-28T10:48:39;103273.66;;;6.60;35.57
45040;BME280;30778;53.574;7.770;2023-02-28T10:51:10;103273.47;;;6.47;36.62
45040;BME280;30778;53.574;7.770;2023-02-28T10:53:47;103271.28;;;6.75;35.59
45040;BME280;30778;53.574;7.770;2023-02-28T10:56:19;103282.50;;;6.71;36.20
45040;BME280;30778;53.574;7.770;2023-02-28T11:01:34;103270.47;;;6.79;36.33
45040;BME280;30778;53.574;7.770;2023-02-28T11:04:01;103266.09;;;6.77;35.05
45040;BME280;30778;53.574;7.770;2023-02-28T11:06:32;103272.56;;;7.06;35.88
45040;BME280;30778;53.574;7.770;2023-02-28T11:09:33;103265.72;;;7.11;35.83
45040;BME280;30778;53.574;7.770;2023-02-28T11:11:51;103258.06;;;7.22;34.19
45040;BME280;30778;53.574;7.770;2023-02-28T11:14:25;103269.91;;;7.00;33.61
45040;BME280;30778;53.574;7.770;2023-02-28T11:16:51;103262.66;;;7.48;34.59
45040;BME280;30778;53.574;7.770;2023-02-28T11:19:34;103262.03;;;7.66;33.99
45040;BME280;30778;53.574;7.770;2023-02-28T11:22:04;103249.03;;;7.67;33.30
45040;BME280;30778;53.574;7.770;2023-02-28T11:24:33;103259.78;;;8.01;33.80
45040;BME280;30778;53.574;7.770;2023-02-28T11:27:01;103257.25;;;8.13;33.21
45040;BME280;30778;53.574;7.770;2023-02-28T11:29:31;103244.63;;;8.69;31.83
45040;BME280;30778;53.574;7.770;2023-02-28T11:32:07;103253.53;;;9.09;32.13
45040;BME280;30778;53.574;7.770;2023-02-28T11:34:37;103243.34;;;9.91;31.66
45040;BME280;30778;53.574;7.770;2023-02-28T11:37:04;103244.13;;;10.71;29.75
45040;BME280;30778;53.574;7.770;2023-02-28T11:39:32;103239.84;;;10.35;30.79
45040;BME280;30778;53.574;7.770;2023-02-28T11:50:21;103247.44;;;9.00;32.00
45040;BME280;30778;53.574;7.770;2023-02-28T11:53:04;103246.78;;;8.03;33.10
45040;BME280;30778;53.574;7.770;2023-02-28T11:55:59;103244.75;;;7.76;34.18
45040;BME280;30778;53.574;7.770;2023-02-28T12:01:40;103229.94;;;7.65;32.85
45040;BME280;30778;53.574;7.770;2023-02-28T12:04:21;103225.16;;;8.14;32.84
45040;BME280;30778;53.574;7.770;2023-02-28T12:09:44;103222.19;;;8.92;31.86
45040;BME280;30778;53.574;7.770;2023-02-28T12:15:54;103213.53;;;9.12;31.26
45040;BME280;30778;53.574;7.770;2023-02-28T12:19:05;103211.84;;;9.20;30.29
45040;BME280;30778;53.574;7.770;2023-02-28T12:21:47;103194.50;;;9.42;29.56
45040;BME280;30778;53.574;7.770;2023-02-28T12:24:32;103198.66;;;8.85;30.81
45040;BME280;30778;53.574;7.770;2023-02-28T12:27:08;103193.44;;;8.85;31.15
45040;BME280;30778;53.574;7.770;2023-02-28T12:29:49;103180.66;;;9.82;28.93
45040;BME280;30778;53.574;7.770;2023-02-28T12:35:06;103183.22;;;10.28;28.67
45040;BME280;30778;53.574;7.770;2023-02-28T12:37:40;103174.53;;;10.15;27.95
45040;BME280;30778;53.574;7.770;2023-02-28T12:40:16;103170.13;;;10.46;27.42
45040;BME280;30778;53.574;7.770;2023-02-28T12:43:00;103164.78;;;10.71;28.71
45040;BME280;30778;53.574;7.770;2023-02-28T12:45:48;103169.66;;;11.43;28.62
45040;BME280;30778;53.574;7.770;2023-02-28T12:48:20;103163.88;;;10.86;27.40
45040;BME280;30778;53.574;7.770;2023-02-28T12:50:47;103164.72;;;10.95;27.08
45040;BME280;30778;53.574;7.770;2023-02-28T12:53:31;103169.91;;;11.03;29.66
45040;BME280;30778;53.574;7.770;2023-02-28T12:56:18;103157.75;;;10.79;29.31
45040;BME280;30778;53.574;7.770;2023-02-28T12:58:55;103157.81;;;10.70;28.82
45040;BME280;30778;53.574;7.770;2023-02-28T13:01:42;103155.19;;;10.73;28.98
45040;BME280;30778;53.574;7.770;2023-02-28T13:09:30;103160.19;;;11.20;29.59
45040;BME280;30778;53.574;7.770;2023-02-28T13:11:55;103156.41;;;11.64;27.21
45040;BME280;30778;53.574;7.770;2023-02-28T13:19:37;103144.63;;;10.93;30.12
45040;BME280;30778;53.574;7.770;2023-02-28T13:22:04;103149.31;;;9.97;31.17
45040;BME280;30778;53.574;7.770;2023-02-28T13:29:38;103144.03;;;9.42;31.50
45040;BME280;30778;53.574;7.770;2023-02-28T13:34:37;103149.06;;;7.47;34.82
45040;BME280;30778;53.574;7.770;2023-02-28T13:39:49;103151.69;;;7.53;35.24
45040;BME280;30778;53.574;7.770;2023-02-28T13:58:43;103149.81;;;7.40;35.83
45040;BME280;30778;53.574;7.770;2023-02-28T14:06:32;103140.63;;;9.86;33.22
45040;BME280;30778;53.574;7.770;2023-02-28T14:09:01;103143.19;;;9.81;32.93
45040;BME280;30778;53.574;7.770;2023-02-28T14:11:37;103138.84;;;9.55;32.62
45040;BME280;30778;53.574;7.770;2023-02-28T14:14:05;103141.44;;;9.62;32.77
45040;BME280;30778;53.574;7.770;2023-02-28T14:16:47;103140.59;;;9.61;32.62
45040;BME280;30778;53.574;7.770;2023-02-28T14:19:25;103143.13;;;10.32;32.07
45040;BME280;30778;53.574;7.770;2023-02-28T14:27:50;103143.97;;;10.43;29.60
45040;BME280;30778;53.574;7.770;2023-02-28T14:33:25;103146.66;;;10.11;28.89
45040;BME280;30778;53.574;7.770;2023-02-28T14:36:18;103137.97;;;9.87;29.61
45040;BME280;30778;53.574;7.770;2023-02-28T14:38:56;103146.50;;;10.61;28.91
45040;BME280;30778;53.574;7.770;2023-02-28T14:41:37;103141.19;;;10.77;28.37
45040;BME280;30778;53.574;7.770;2023-02-28T14:46:44;103140.56;;;10.01;28.59
45040;BME280;30778;53.574;7.770;2023-02-28T14:49:18;103136.22;;;9.95;29.11
45040;BME280;30778;53.574;7.770;2023-02-28T14:51:44;103136.22;;;10.03;28.71
45040;BME280;30778;53.574;7.770;2023-02-28T14:54:14;103135.31;;;10.18;28.08
45040;BME280;30778;53.574;7.770;2023-02-28T14:56:41;103137.09;;;9.90;28.67
45040;BME280;30778;53.574;7.770;2023-02-28T14:59:24;103130.16;;;9.79;28.44
45040;BME280;30778;53.574;7.770;2023-02-28T15:01:49;103128.38;;;9.45;29.53
45040;BME280;30778;53.574;7.770;2023-02-28T15:04:25;103131.84;;;9.30;30.58
45040;BME280;30778;53.574;7.770;2023-02-28T15:07:13;103137.09;;;9.80;29.34
45040;BME280;30778;53.574;7.770;2023-02-28T15:09:39;103138.84;;;9.57;28.97
45040;BME280;30778;53.574;7.770;2023-02-28T15:12:05;103143.16;;;9.38;29.67